sensor_id;sensor_type;location;lat;lon;timestamp;P1;durP1;ratioP1;P2;durP2;ratioP2
48161;SDS011;33950;48.154;16.316;2023-05-16T00:00:06;1.60;;;1.50;;
48161;SDS011;33950;48.154;16.316;2023-05-16T00:02:54;2.17;;;1.73;;
48161;SDS011;33950;48.154;16.316;2023-05-16T00:05:41;1.88;;;1.35;;
48161;SDS011;33950;48.154;16.316;2023-05-16T00:08:27;2.05;;;1.83;;
48161;SDS011;33950;48.154;16.316;2023-05-16T00:11:15;1.63;;;1.30;;
48161;SDS011;33950;48.154;16.316;2023-05-16T00:14:01;1.73;;;1.63;;
48161;SDS011;33950;48.154;16.316;2023-05-16T00:16:48;2.97;;;1.67;;
48161;SDS011;33950;48.154;16.316;2023-05-16T00:19:36;3.72;;;1.55;;
48161;SDS011;33950;48.154;16.316;2023-05-16T00:22:23;3.90;;;1.33;;
48161;SDS011;33950;48.154;16.316;2023-05-16T00:25:10;2.53;;;1.30;;
48161;SDS011;33950;48.154;16.316;2023-05-16T00:27:56;1.55;;;1.45;;
48161;SDS011;33950;48.154;16.316;2023-05-16T00:30:42;4.03;;;2.00;;
48161;SDS011;33950;48.154;16.316;2023-05-16T00:33:28;4.28;;;1.73;;
48161;SDS011;33950;48.154;16.316;2023-05-16T00:36:16;1.27;;;1.20;;
48161;SDS011;33950;48.154;16.316;2023-05-16T00:39:02;4.15;;;1.83;;
48161;SDS011;33950;48.154;16.316;2023-05-16T00:41:48;2.47;;;1.65;;
48161;SDS011;33950;48.154;16.316;2023-05-16T00:44:34;6.93;;;1.88;;
48161;SDS011;33950;48.154;16.316;2023-05-16T00:47:21;1.90;;;1.70;;
48161;SDS011;33950;48.154;16.316;2023-05-16T00:50:07;4.10;;;2.50;;
48161;SDS011;33950;48.154;16.316;2023-05-16T00:52:56;2.70;;;2.10;;
48161;SDS011;33950;48.154;16.316;2023-05-16T00:55:42;2.25;;;1.92;;
48161;SDS011;33950;48.154;16.316;2023-05-16T00:58:28;3.40;;;2.08;;
48161;SDS011;33950;48.154;16.316;2023-05-16T01:01:16;2.80;;;2.13;;
48161;SDS011;33950;48.154;16.316;2023-05-16T01:04:04;3.78;;;1.90;;
48161;SDS011;33950;48.154;16.316;2023-05-16T01:06:50;3.58;;;2.08;;
48161;SDS011;33950;48.154;16.316;2023-05-16T01:09:39;2.08;;;1.90;;
48161;SDS011;33950;48.154;16.316;2023-05-16T01:12:27;2.50;;;2.20;;
48161;SDS011;33950;48.154;16.316;2023-05-16T01:15:21;4.28;;;2.05;;
48161;SDS011;33950;48.154;16.316;2023-05-16T01:18:14;2.65;;;2.17;;
48161;SDS011;33950;48.154;16.316;2023-05-16T01:21:11;4.38;;;1.73;;
48161;SDS011;33950;48.154;16.316;2023-05-16T01:24:03;1.70;;;1.60;;
48161;SDS011;33950;48.154;16.316;2023-05-16T01:26:59;2.17;;;1.75;;
48161;SDS011;33950;48.154;16.316;2023-05-16T01:29:47;4.70;;;1.95;;
48161;SDS011;33950;48.154;16.316;2023-05-16T01:32:33;3.78;;;1.95;;
48161;SDS011;33950;48.154;16.316;2023-05-16T01:35:19;1.63;;;1.40;;
48161;SDS011;33950;48.154;16.316;2023-05-16T01:38:07;2.33;;;1.63;;
48161;SDS011;33950;48.154;16.316;2023-05-16T01:41:01;1.85;;;1.75;;
48161;SDS011;33950;48.154;16.316;2023-05-16T01:46:44;3.90;;;2.15;;
48161;SDS011;33950;48.154;16.316;2023-05-16T01:49:34;2.55;;;1.90;;
48161;SDS011;33950;48.154;16.316;2023-05-16T01:52:27;6.07;;;2.45;;
48161;SDS011;33950;48.154;16.316;2023-05-16T01:55:22;2.05;;;1.67;;
48161;SDS011;33950;48.154;16.316;2023-05-16T01:58:14;3.63;;;1.83;;
48161;SDS011;33950;48.154;16.316;2023-05-16T02:01:04;6.20;;;2.17;;
48161;SDS011;33950;48.154;16.316;2023-05-16T02:03:51;2.08;;;1.85;;
48161;SDS011;33950;48.154;16.316;2023-05-16T02:06:37;2.63;;;2.08;;
48161;SDS011;33950;48.154;16.316;2023-05-16T02:09:23;2.80;;;2.28;;
48161;SDS011;33950;48.154;16.316;2023-05-16T02:12:10;2.78;;;1.92;;
48161;SDS011;33950;48.154;16.316;2023-05-16T02:14:56;1.95;;;1.80;;
48161;SDS011;33950;48.154;16.316;2023-05-16T02:17:43;2.33;;;1.73;;
48161;SDS011;33950;48.154;16.316;2023-05-16T02:20:30;3.80;;;1.83;;
48161;SDS011;33950;48.154;16.316;2023-05-16T02:23:16;2.60;;;1.77;;
48161;SDS011;33950;48.154;16.316;2023-05-16T02:26:02;2.15;;;1.88;;
48161;SDS011;33950;48.154;16.316;2023-05-16T02:28:49;1.98;;;1.70;;
48161;SDS011;33950;48.154;16.316;2023-05-16T02:31:35;2.28;;;1.70;;
48161;SDS011;33950;48.154;16.316;2023-05-16T02:34:22;6.75;;;2.20;;
48161;SDS011;33950;48.154;16.316;2023-05-16T02:37:08;1.90;;;1.70;;
48161;SDS011;33950;48.154;16.316;2023-05-16T02:39:55;2.97;;;2.10;;
48161;SDS011;33950;48.154;16.316;2023-05-16T02:42:41;2.60;;;2.00;;
48161;SDS011;33950;48.154;16.316;2023-05-16T02:45:27;2.70;;;1.98;;
48161;SDS011;33950;48.154;16.316;2023-05-16T02:48:13;3.15;;;2.30;;
48161;SDS011;33950;48.154;16.316;2023-05-16T02:51:00;2.60;;;1.88;;
48161;SDS011;33950;48.154;16.316;2023-05-16T02:53:46;3.15;;;2.15;;
48161;SDS011;33950;48.154;16.316;2023-05-16T02:56:32;5.47;;;2.00;;
48161;SDS011;33950;48.154;16.316;2023-05-16T02:59:19;2.35;;;1.73;;
48161;SDS011;33950;48.154;16.316;2023-05-16T03:02:05;3.13;;;2.40;;
48161;SDS011;33950;48.154;16.316;2023-05-16T03:04:51;4.10;;;2.20;;
48161;SDS011;33950;48.154;16.316;2023-05-16T03:07:38;2.30;;;1.92;;
48161;SDS011;33950;48.154;16.316;2023-05-16T03:10:24;3.97;;;1.80;;
48161;SDS011;33950;48.154;16.316;2023-05-16T03:13:10;2.92;;;2.20;;
48161;SDS011;33950;48.154;16.316;2023-05-16T03:15:56;2.90;;;1.95;;
48161;SDS011;33950;48.154;16.316;2023-05-16T03:18:43;1.92;;;1.50;;
48161;SDS011;33950;48.154;16.316;2023-05-16T03:21:29;2.38;;;1.98;;
48161;SDS011;33950;48.154;16.316;2023-05-16T03:24:17;2.72;;;1.63;;
48161;SDS011;33950;48.154;16.316;2023-05-16T03:27:03;5.45;;;2.25;;
48161;SDS011;33950;48.154;16.316;2023-05-16T03:29:50;4.07;;;2.72;;
48161;SDS011;33950;48.154;16.316;2023-05-16T03:32:36;2.08;;;1.88;;
48161;SDS011;33950;48.154;16.316;2023-05-16T03:35:22;4.22;;;1.92;;
48161;SDS011;33950;48.154;16.316;2023-05-16T03:38:09;2.08;;;1.88;;
48161;SDS011;33950;48.154;16.316;2023-05-16T03:40:56;3.97;;;1.98;;
48161;SDS011;33950;48.154;16.316;2023-05-16T03:43:43;5.88;;;2.50;;
48161;SDS011;33950;48.154;16.316;2023-05-16T03:46:29;2.70;;;2.03;;
48161;SDS011;33950;48.154;16.316;2023-05-16T03:49:15;4.20;;;2.17;;
48161;SDS011;33950;48.154;16.316;2023-05-16T03:52:01;3.42;;;2.25;;
48161;SDS011;33950;48.154;16.316;2023-05-16T03:54:48;2.53;;;1.80;;
48161;SDS011;33950;48.154;16.316;2023-05-16T03:57:36;6.68;;;2.53;;
48161;SDS011;33950;48.154;16.316;2023-05-16T04:03:12;2.13;;;1.80;;
48161;SDS011;33950;48.154;16.316;2023-05-16T04:05:58;7.85;;;2.03;;
48161;SDS011;33950;48.154;16.316;2023-05-16T04:08:45;3.85;;;2.00;;
48161;SDS011;33950;48.154;16.316;2023-05-16T04:11:31;2.22;;;2.00;;
48161;SDS011;33950;48.154;16.316;2023-05-16T04:14:19;5.50;;;1.95;;
48161;SDS011;33950;48.154;16.316;2023-05-16T04:17:05;3.72;;;2.17;;
48161;SDS011;33950;48.154;16.316;2023-05-16T04:19:52;2.53;;;2.25;;
48161;SDS011;33950;48.154;16.316;2023-05-16T04:22:38;8.00;;;2.20;;
48161;SDS011;33950;48.154;16.316;2023-05-16T04:25:24;2.95;;;2.30;;
48161;SDS011;33950;48.154;16.316;2023-05-16T04:28:10;3.83;;;1.90;;
48161;SDS011;33950;48.154;16.316;2023-05-16T04:30:58;7.40;;;2.67;;
48161;SDS011;33950;48.154;16.316;2023-05-16T04:33:46;3.72;;;2.35;;
48161;SDS011;33950;48.154;16.316;2023-05-16T04:36:32;2.67;;;2.40;;
48161;SDS011;33950;48.154;16.316;2023-05-16T04:39:19;3.13;;;2.50;;
48161;SDS011;33950;48.154;16.316;2023-05-16T04:42:06;6.38;;;2.55;;
48161;SDS011;33950;48.154;16.316;2023-05-16T04:44:52;3.90;;;2.30;;
48161;SDS011;33950;48.154;16.316;2023-05-16T04:47:40;2.80;;;2.28;;
48161;SDS011;33950;48.154;16.316;2023-05-16T04:50:26;3.53;;;2.65;;
48161;SDS011;33950;48.154;16.316;2023-05-16T04:53:12;2.70;;;2.20;;
48161;SDS011;33950;48.154;16.316;2023-05-16T04:55:59;3.33;;;2.42;;
48161;SDS011;33950;48.154;16.316;2023-05-16T04:58:45;4.20;;;2.65;;
48161;SDS011;33950;48.154;16.316;2023-05-16T05:01:31;3.88;;;2.72;;
48161;SDS011;33950;48.154;16.316;2023-05-16T05:04:19;4.25;;;2.60;;
48161;SDS011;33950;48.154;16.316;2023-05-16T05:07:05;3.45;;;2.60;;
48161;SDS011;33950;48.154;16.316;2023-05-16T05:09:51;4.90;;;2.40;;
48161;SDS011;33950;48.154;16.316;2023-05-16T05:12:40;2.38;;;2.17;;
48161;SDS011;33950;48.154;16.316;2023-05-16T05:15:26;10.98;;;2.92;;
48161;SDS011;33950;48.154;16.316;2023-05-16T05:18:12;6.75;;;2.90;;
48161;SDS011;33950;48.154;16.316;2023-05-16T05:21:00;8.25;;;3.00;;
48161;SDS011;33950;48.154;16.316;2023-05-16T05:23:46;5.80;;;2.80;;
48161;SDS011;33950;48.154;16.316;2023-05-16T05:26:34;3.95;;;2.53;;
48161;SDS011;33950;48.154;16.316;2023-05-16T05:29:20;6.63;;;2.90;;
48161;SDS011;33950;48.154;16.316;2023-05-16T05:32:06;5.70;;;2.67;;
48161;SDS011;33950;48.154;16.316;2023-05-16T05:34:53;5.03;;;3.20;;
48161;SDS011;33950;48.154;16.316;2023-05-16T05:37:40;5.40;;;2.67;;
48161;SDS011;33950;48.154;16.316;2023-05-16T05:40:26;4.32;;;2.60;;
48161;SDS011;33950;48.154;16.316;2023-05-16T05:43:12;3.78;;;2.70;;
48161;SDS011;33950;48.154;16.316;2023-05-16T05:45:58;6.03;;;2.60;;
48161;SDS011;33950;48.154;16.316;2023-05-16T05:48:44;3.55;;;2.63;;
48161;SDS011;33950;48.154;16.316;2023-05-16T05:51:31;5.00;;;2.88;;
48161;SDS011;33950;48.154;16.316;2023-05-16T05:54:18;7.70;;;3.05;;
48161;SDS011;33950;48.154;16.316;2023-05-16T05:57:05;11.15;;;3.35;;
48161;SDS011;33950;48.154;16.316;2023-05-16T05:59:51;4.53;;;2.75;;
48161;SDS011;33950;48.154;16.316;2023-05-16T06:02:37;6.88;;;2.70;;
48161;SDS011;33950;48.154;16.316;2023-05-16T06:05:23;7.95;;;2.83;;
48161;SDS011;33950;48.154;16.316;2023-05-16T06:08:09;10.25;;;2.63;;
48161;SDS011;33950;48.154;16.316;2023-05-16T06:10:57;4.57;;;3.25;;
48161;SDS011;33950;48.154;16.316;2023-05-16T06:13:44;4.05;;;2.55;;
48161;SDS011;33950;48.154;16.316;2023-05-16T06:16:30;6.03;;;3.67;;
48161;SDS011;33950;48.154;16.316;2023-05-16T06:19:16;8.32;;;3.15;;
48161;SDS011;33950;48.154;16.316;2023-05-16T06:22:02;8.70;;;3.20;;
48161;SDS011;33950;48.154;16.316;2023-05-16T06:24:48;3.00;;;2.58;;
48161;SDS011;33950;48.154;16.316;2023-05-16T06:27:35;3.30;;;2.72;;
48161;SDS011;33950;48.154;16.316;2023-05-16T06:30:22;9.88;;;3.13;;
48161;SDS011;33950;48.154;16.316;2023-05-16T06:33:08;4.30;;;2.95;;
48161;SDS011;33950;48.154;16.316;2023-05-16T06:35:54;2.65;;;2.28;;
48161;SDS011;33950;48.154;16.316;2023-05-16T06:38:40;5.35;;;2.78;;
48161;SDS011;33950;48.154;16.316;2023-05-16T06:41:27;5.60;;;3.13;;
48161;SDS011;33950;48.154;16.316;2023-05-16T06:44:14;5.45;;;3.55;;
48161;SDS011;33950;48.154;16.316;2023-05-16T06:47:00;7.72;;;3.72;;
48161;SDS011;33950;48.154;16.316;2023-05-16T06:49:47;3.97;;;2.70;;
48161;SDS011;33950;48.154;16.316;2023-05-16T06:52:33;9.73;;;2.85;;
48161;SDS011;33950;48.154;16.316;2023-05-16T06:55:19;5.43;;;2.55;;
48161;SDS011;33950;48.154;16.316;2023-05-16T06:58:05;7.85;;;3.67;;
48161;SDS011;33950;48.154;16.316;2023-05-16T07:00:53;5.45;;;3.00;;
48161;SDS011;33950;48.154;16.316;2023-05-16T07:03:39;10.85;;;5.20;;
48161;SDS011;33950;48.154;16.316;2023-05-16T07:06:25;8.45;;;3.47;;
48161;SDS011;33950;48.154;16.316;2023-05-16T07:09:11;8.05;;;4.72;;
48161;SDS011;33950;48.154;16.316;2023-05-16T07:11:58;4.57;;;3.38;;
48161;SDS011;33950;48.154;16.316;2023-05-16T07:14:44;5.03;;;3.38;;
48161;SDS011;33950;48.154;16.316;2023-05-16T07:17:32;10.98;;;4.65;;
48161;SDS011;33950;48.154;16.316;2023-05-16T07:20:18;9.88;;;4.15;;
48161;SDS011;33950;48.154;16.316;2023-05-16T07:23:04;10.13;;;4.00;;
48161;SDS011;33950;48.154;16.316;2023-05-16T07:25:51;7.80;;;3.30;;
48161;SDS011;33950;48.154;16.316;2023-05-16T07:28:37;15.82;;;6.32;;
48161;SDS011;33950;48.154;16.316;2023-05-16T07:31:23;10.82;;;5.95;;
48161;SDS011;33950;48.154;16.316;2023-05-16T07:34:11;13.57;;;6.35;;
48161;SDS011;33950;48.154;16.316;2023-05-16T07:36:57;11.43;;;6.63;;
48161;SDS011;33950;48.154;16.316;2023-05-16T07:39:43;8.50;;;4.72;;
48161;SDS011;33950;48.154;16.316;2023-05-16T07:42:30;14.73;;;5.30;;
48161;SDS011;33950;48.154;16.316;2023-05-16T07:45:16;7.97;;;3.30;;
48161;SDS011;33950;48.154;16.316;2023-05-16T07:48:02;6.82;;;3.70;;
48161;SDS011;33950;48.154;16.316;2023-05-16T07:50:49;9.05;;;3.30;;
48161;SDS011;33950;48.154;16.316;2023-05-16T07:53:36;5.35;;;3.53;;
48161;SDS011;33950;48.154;16.316;2023-05-16T07:56:22;6.90;;;3.58;;
48161;SDS011;33950;48.154;16.316;2023-05-16T07:59:08;11.60;;;4.32;;
48161;SDS011;33950;48.154;16.316;2023-05-16T08:01:54;10.75;;;4.30;;
48161;SDS011;33950;48.154;16.316;2023-05-16T08:04:41;7.15;;;4.32;;
48161;SDS011;33950;48.154;16.316;2023-05-16T08:07:28;6.15;;;4.45;;
48161;SDS011;33950;48.154;16.316;2023-05-16T08:10:14;9.93;;;4.60;;
48161;SDS011;33950;48.154;16.316;2023-05-16T08:13:00;11.32;;;4.03;;
48161;SDS011;33950;48.154;16.316;2023-05-16T08:15:47;10.80;;;5.88;;
48161;SDS011;33950;48.154;16.316;2023-05-16T08:18:33;6.78;;;4.63;;
48161;SDS011;33950;48.154;16.316;2023-05-16T08:21:19;7.68;;;3.92;;
48161;SDS011;33950;48.154;16.316;2023-05-16T08:24:06;5.25;;;4.18;;
48161;SDS011;33950;48.154;16.316;2023-05-16T08:26:55;9.20;;;4.60;;
48161;SDS011;33950;48.154;16.316;2023-05-16T08:29:41;9.10;;;4.47;;
48161;SDS011;33950;48.154;16.316;2023-05-16T08:32:27;7.63;;;4.60;;
48161;SDS011;33950;48.154;16.316;2023-05-16T08:35:13;11.40;;;5.50;;
48161;SDS011;33950;48.154;16.316;2023-05-16T08:38:00;10.70;;;5.18;;
48161;SDS011;33950;48.154;16.316;2023-05-16T08:40:48;7.43;;;5.20;;
48161;SDS011;33950;48.154;16.316;2023-05-16T08:43:35;12.18;;;5.63;;
48161;SDS011;33950;48.154;16.316;2023-05-16T08:46:21;9.75;;;5.80;;
48161;SDS011;33950;48.154;16.316;2023-05-16T08:49:08;9.95;;;6.40;;
48161;SDS011;33950;48.154;16.316;2023-05-16T08:51:56;13.48;;;6.20;;
48161;SDS011;33950;48.154;16.316;2023-05-16T08:54:43;8.40;;;6.65;;
48161;SDS011;33950;48.154;16.316;2023-05-16T08:57:32;11.43;;;6.68;;
48161;SDS011;33950;48.154;16.316;2023-05-16T09:00:18;18.40;;;7.18;;
48161;SDS011;33950;48.154;16.316;2023-05-16T09:03:05;8.25;;;6.10;;
48161;SDS011;33950;48.154;16.316;2023-05-16T09:05:52;11.85;;;7.13;;
48161;SDS011;33950;48.154;16.316;2023-05-16T09:08:38;12.55;;;7.10;;
48161;SDS011;33950;48.154;16.316;2023-05-16T09:11:24;13.73;;;7.93;;
48161;SDS011;33950;48.154;16.316;2023-05-16T09:14:12;13.98;;;7.55;;
48161;SDS011;33950;48.154;16.316;2023-05-16T09:17:02;13.27;;;7.93;;
48161;SDS011;33950;48.154;16.316;2023-05-16T09:19:49;12.20;;;8.00;;
48161;SDS011;33950;48.154;16.316;2023-05-16T09:22:37;13.02;;;8.63;;
48161;SDS011;33950;48.154;16.316;2023-05-16T09:25:24;11.80;;;8.45;;
48161;SDS011;33950;48.154;16.316;2023-05-16T09:28:12;12.68;;;8.30;;
48161;SDS011;33950;48.154;16.316;2023-05-16T09:31:00;14.10;;;8.27;;
48161;SDS011;33950;48.154;16.316;2023-05-16T09:33:46;22.65;;;9.48;;
48161;SDS011;33950;48.154;16.316;2023-05-16T09:36:36;27.33;;;9.90;;
48161;SDS011;33950;48.154;16.316;2023-05-16T09:39:23;15.68;;;9.32;;
48161;SDS011;33950;48.154;16.316;2023-05-16T09:42:12;13.18;;;9.45;;
48161;SDS011;33950;48.154;16.316;2023-05-16T09:44:58;12.10;;;8.77;;
48161;SDS011;33950;48.154;16.316;2023-05-16T09:47:46;15.68;;;9.40;;
48161;SDS011;33950;48.154;16.316;2023-05-16T09:50:32;14.95;;;9.95;;
48161;SDS011;33950;48.154;16.316;2023-05-16T09:53:23;18.40;;;10.05;;
48161;SDS011;33950;48.154;16.316;2023-05-16T09:56:12;15.27;;;10.30;;
48161;SDS011;33950;48.154;16.316;2023-05-16T09:58:59;14.85;;;10.35;;
48161;SDS011;33950;48.154;16.316;2023-05-16T10:01:45;14.57;;;10.00;;
48161;SDS011;33950;48.154;16.316;2023-05-16T10:04:34;15.20;;;10.77;;
48161;SDS011;33950;48.154;16.316;2023-05-16T10:07:20;17.98;;;11.02;;
48161;SDS011;33950;48.154;16.316;2023-05-16T10:10:07;16.27;;;10.70;;
48161;SDS011;33950;48.154;16.316;2023-05-16T10:12:55;15.10;;;10.32;;
48161;SDS011;33950;48.154;16.316;2023-05-16T10:15:46;18.92;;;11.43;;
48161;SDS011;33950;48.154;16.316;2023-05-16T10:18:33;17.92;;;11.80;;
48161;SDS011;33950;48.154;16.316;2023-05-16T10:21:22;17.58;;;11.13;;
48161;SDS011;33950;48.154;16.316;2023-05-16T10:24:10;18.55;;;10.63;;
48161;SDS011;33950;48.154;16.316;2023-05-16T10:26:59;18.30;;;11.85;;
48161;SDS011;33950;48.154;16.316;2023-05-16T10:29:47;19.30;;;11.55;;
48161;SDS011;33950;48.154;16.316;2023-05-16T10:32:34;19.02;;;11.43;;
48161;SDS011;33950;48.154;16.316;2023-05-16T10:35:21;21.52;;;12.45;;
48161;SDS011;33950;48.154;16.316;2023-05-16T10:38:10;15.77;;;10.60;;
48161;SDS011;33950;48.154;16.316;2023-05-16T10:40:57;15.20;;;10.68;;
48161;SDS011;33950;48.154;16.316;2023-05-16T10:43:43;20.33;;;12.30;;
48161;SDS011;33950;48.154;16.316;2023-05-16T10:46:40;18.50;;;11.30;;
48161;SDS011;33950;48.154;16.316;2023-05-16T10:49:26;18.00;;;11.77;;
48161;SDS011;33950;48.154;16.316;2023-05-16T10:52:12;15.77;;;11.43;;
48161;SDS011;33950;48.154;16.316;2023-05-16T10:55:03;20.42;;;11.98;;
48161;SDS011;33950;48.154;16.316;2023-05-16T10:57:49;19.73;;;11.07;;
48161;SDS011;33950;48.154;16.316;2023-05-16T11:00:36;18.65;;;12.63;;
48161;SDS011;33950;48.154;16.316;2023-05-16T11:03:24;22.38;;;12.05;;
48161;SDS011;33950;48.154;16.316;2023-05-16T11:06:13;24.58;;;13.20;;
48161;SDS011;33950;48.154;16.316;2023-05-16T11:09:06;24.90;;;12.45;;
48161;SDS011;33950;48.154;16.316;2023-05-16T11:12:03;17.95;;;12.75;;
48161;SDS011;33950;48.154;16.316;2023-05-16T11:14:50;19.63;;;13.52;;
48161;SDS011;33950;48.154;16.316;2023-05-16T11:17:38;17.95;;;12.50;;
48161;SDS011;33950;48.154;16.316;2023-05-16T11:20:25;17.50;;;12.48;;
48161;SDS011;33950;48.154;16.316;2023-05-16T11:23:21;22.58;;;13.65;;
48161;SDS011;33950;48.154;16.316;2023-05-16T11:26:09;25.58;;;15.25;;
48161;SDS011;33950;48.154;16.316;2023-05-16T11:28:56;26.75;;;15.80;;
48161;SDS011;33950;48.154;16.316;2023-05-16T11:31:43;22.35;;;13.73;;
48161;SDS011;33950;48.154;16.316;2023-05-16T11:34:30;22.48;;;13.43;;
48161;SDS011;33950;48.154;16.316;2023-05-16T11:37:16;19.63;;;13.20;;
48161;SDS011;33950;48.154;16.316;2023-05-16T11:40:04;22.38;;;12.90;;
48161;SDS011;33950;48.154;16.316;2023-05-16T11:42:52;17.10;;;12.07;;
48161;SDS011;33950;48.154;16.316;2023-05-16T11:45:40;17.83;;;12.35;;
48161;SDS011;33950;48.154;16.316;2023-05-16T11:48:26;18.13;;;11.93;;
48161;SDS011;33950;48.154;16.316;2023-05-16T11:51:12;17.27;;;13.00;;
48161;SDS011;33950;48.154;16.316;2023-05-16T11:54:03;18.65;;;12.57;;
48161;SDS011;33950;48.154;16.316;2023-05-16T11:56:49;19.92;;;11.68;;
48161;SDS011;33950;48.154;16.316;2023-05-16T11:59:36;16.52;;;11.40;;
48161;SDS011;33950;48.154;16.316;2023-05-16T12:02:24;18.27;;;11.82;;
48161;SDS011;33950;48.154;16.316;2023-05-16T12:05:13;18.60;;;11.43;;
48161;SDS011;33950;48.154;16.316;2023-05-16T12:08:01;19.67;;;12.60;;
48161;SDS011;33950;48.154;16.316;2023-05-16T12:10:49;16.05;;;11.57;;
48161;SDS011;33950;48.154;16.316;2023-05-16T12:13:36;19.13;;;12.57;;
48161;SDS011;33950;48.154;16.316;2023-05-16T12:16:22;24.23;;;13.23;;
48161;SDS011;33950;48.154;16.316;2023-05-16T12:19:10;21.45;;;13.88;;
48161;SDS011;33950;48.154;16.316;2023-05-16T12:21:56;18.52;;;11.88;;
48161;SDS011;33950;48.154;16.316;2023-05-16T12:24:43;21.50;;;13.13;;
48161;SDS011;33950;48.154;16.316;2023-05-16T12:27:29;21.98;;;13.82;;
48161;SDS011;33950;48.154;16.316;2023-05-16T12:30:17;18.50;;;13.25;;
48161;SDS011;33950;48.154;16.316;2023-05-16T12:33:07;18.02;;;12.52;;
48161;SDS011;33950;48.154;16.316;2023-05-16T12:35:56;16.73;;;12.13;;
48161;SDS011;33950;48.154;16.316;2023-05-16T12:38:46;19.65;;;12.93;;
48161;SDS011;33950;48.154;16.316;2023-05-16T12:41:32;23.05;;;13.52;;
48161;SDS011;33950;48.154;16.316;2023-05-16T12:44:28;24.63;;;15.20;;
48161;SDS011;33950;48.154;16.316;2023-05-16T12:47:14;23.45;;;15.35;;
48161;SDS011;33950;48.154;16.316;2023-05-16T12:50:01;20.85;;;14.05;;
48161;SDS011;33950;48.154;16.316;2023-05-16T12:52:50;26.92;;;14.90;;
48161;SDS011;33950;48.154;16.316;2023-05-16T12:55:37;24.27;;;15.43;;
48161;SDS011;33950;48.154;16.316;2023-05-16T12:58:24;25.02;;;15.77;;
48161;SDS011;33950;48.154;16.316;2023-05-16T13:01:10;18.63;;;11.98;;
48161;SDS011;33950;48.154;16.316;2023-05-16T13:03:56;18.65;;;12.20;;
48161;SDS011;33950;48.154;16.316;2023-05-16T13:06:42;21.23;;;14.82;;
48161;SDS011;33950;48.154;16.316;2023-05-16T13:09:30;18.52;;;12.73;;
48161;SDS011;33950;48.154;16.316;2023-05-16T13:12:17;20.88;;;13.40;;
48161;SDS011;33950;48.154;16.316;2023-05-16T13:15:03;22.35;;;13.02;;
48161;SDS011;33950;48.154;16.316;2023-05-16T13:17:51;17.48;;;12.73;;
48161;SDS011;33950;48.154;16.316;2023-05-16T13:20:37;19.83;;;12.55;;
48161;SDS011;33950;48.154;16.316;2023-05-16T13:23:24;23.33;;;14.98;;
48161;SDS011;33950;48.154;16.316;2023-05-16T13:26:12;22.42;;;14.55;;
48161;SDS011;33950;48.154;16.316;2023-05-16T13:28:58;20.55;;;14.02;;
48161;SDS011;33950;48.154;16.316;2023-05-16T13:31:46;19.58;;;12.77;;
48161;SDS011;33950;48.154;16.316;2023-05-16T13:34:32;17.50;;;12.27;;
48161;SDS011;33950;48.154;16.316;2023-05-16T13:37:18;20.80;;;13.75;;
48161;SDS011;33950;48.154;16.316;2023-05-16T13:40:05;21.48;;;14.32;;
48161;SDS011;33950;48.154;16.316;2023-05-16T13:42:55;21.90;;;14.40;;
48161;SDS011;33950;48.154;16.316;2023-05-16T13:45:42;24.05;;;15.68;;
48161;SDS011;33950;48.154;16.316;2023-05-16T13:48:28;27.40;;;15.30;;
48161;SDS011;33950;48.154;16.316;2023-05-16T13:51:14;28.38;;;16.92;;
48161;SDS011;33950;48.154;16.316;2023-05-16T13:54:00;20.35;;;14.18;;
48161;SDS011;33950;48.154;16.316;2023-05-16T13:56:46;21.88;;;13.45;;
48161;SDS011;33950;48.154;16.316;2023-05-16T13:59:34;15.75;;;11.77;;
48161;SDS011;33950;48.154;16.316;2023-05-16T14:02:20;19.92;;;11.75;;
48161;SDS011;33950;48.154;16.316;2023-05-16T14:05:07;17.30;;;11.57;;
48161;SDS011;33950;48.154;16.316;2023-05-16T14:07:56;27.58;;;15.90;;
48161;SDS011;33950;48.154;16.316;2023-05-16T14:10:42;15.55;;;11.07;;
48161;SDS011;33950;48.154;16.316;2023-05-16T14:13:31;18.85;;;12.38;;
48161;SDS011;33950;48.154;16.316;2023-05-16T14:16:18;18.10;;;12.73;;
48161;SDS011;33950;48.154;16.316;2023-05-16T14:19:04;21.60;;;12.18;;
48161;SDS011;33950;48.154;16.316;2023-05-16T14:21:54;18.33;;;13.65;;
48161;SDS011;33950;48.154;16.316;2023-05-16T14:24:40;14.85;;;11.48;;
48161;SDS011;33950;48.154;16.316;2023-05-16T14:27:26;18.05;;;12.00;;
48161;SDS011;33950;48.154;16.316;2023-05-16T14:30:15;20.63;;;12.20;;
48161;SDS011;33950;48.154;16.316;2023-05-16T14:33:02;17.45;;;11.50;;
48161;SDS011;33950;48.154;16.316;2023-05-16T14:35:50;17.08;;;11.50;;
48161;SDS011;33950;48.154;16.316;2023-05-16T14:38:36;15.05;;;11.82;;
48161;SDS011;33950;48.154;16.316;2023-05-16T14:41:22;23.88;;;13.93;;
48161;SDS011;33950;48.154;16.316;2023-05-16T14:44:08;24.23;;;15.10;;
48161;SDS011;33950;48.154;16.316;2023-05-16T14:46:54;16.92;;;11.23;;
48161;SDS011;33950;48.154;16.316;2023-05-16T14:49:42;16.38;;;11.80;;
48161;SDS011;33950;48.154;16.316;2023-05-16T14:52:28;19.48;;;12.27;;
48161;SDS011;33950;48.154;16.316;2023-05-16T14:55:14;18.90;;;13.25;;
48161;SDS011;33950;48.154;16.316;2023-05-16T14:58:01;19.23;;;14.00;;
48161;SDS011;33950;48.154;16.316;2023-05-16T15:00:48;21.15;;;14.07;;
48161;SDS011;33950;48.154;16.316;2023-05-16T15:03:37;20.98;;;13.55;;
48161;SDS011;33950;48.154;16.316;2023-05-16T15:06:25;21.40;;;15.18;;
48161;SDS011;33950;48.154;16.316;2023-05-16T15:09:11;21.75;;;14.50;;
48161;SDS011;33950;48.154;16.316;2023-05-16T15:11:57;19.95;;;13.88;;
48161;SDS011;33950;48.154;16.316;2023-05-16T15:14:44;17.58;;;13.30;;
48161;SDS011;33950;48.154;16.316;2023-05-16T15:17:30;19.52;;;12.07;;
48161;SDS011;33950;48.154;16.316;2023-05-16T15:20:16;20.30;;;13.40;;
48161;SDS011;33950;48.154;16.316;2023-05-16T15:23:04;19.70;;;13.50;;
48161;SDS011;33950;48.154;16.316;2023-05-16T15:25:51;30.05;;;13.18;;
48161;SDS011;33950;48.154;16.316;2023-05-16T15:28:38;19.38;;;13.60;;
48161;SDS011;33950;48.154;16.316;2023-05-16T15:31:27;22.75;;;13.95;;
48161;SDS011;33950;48.154;16.316;2023-05-16T15:34:15;20.58;;;14.43;;
48161;SDS011;33950;48.154;16.316;2023-05-16T15:37:01;20.52;;;13.55;;
48161;SDS011;33950;48.154;16.316;2023-05-16T15:39:49;25.15;;;14.57;;
48161;SDS011;33950;48.154;16.316;2023-05-16T15:42:36;22.92;;;15.30;;
48161;SDS011;33950;48.154;16.316;2023-05-16T15:45:22;24.48;;;16.20;;
48161;SDS011;33950;48.154;16.316;2023-05-16T15:48:08;26.25;;;16.50;;
48161;SDS011;33950;48.154;16.316;2023-05-16T15:50:54;23.67;;;15.82;;
48161;SDS011;33950;48.154;16.316;2023-05-16T15:53:41;24.08;;;15.27;;
48161;SDS011;33950;48.154;16.316;2023-05-16T15:56:28;27.48;;;16.95;;
48161;SDS011;33950;48.154;16.316;2023-05-16T15:59:14;22.48;;;15.35;;
48161;SDS011;33950;48.154;16.316;2023-05-16T16:02:01;20.30;;;14.45;;
48161;SDS011;33950;48.154;16.316;2023-05-16T16:04:49;26.42;;;15.55;;
48161;SDS011;33950;48.154;16.316;2023-05-16T16:07:36;22.05;;;15.05;;
48161;SDS011;33950;48.154;16.316;2023-05-16T16:10:22;26.27;;;14.48;;
48161;SDS011;33950;48.154;16.316;2023-05-16T16:13:10;21.52;;;16.17;;
48161;SDS011;33950;48.154;16.316;2023-05-16T16:15:57;23.42;;;16.45;;
48161;SDS011;33950;48.154;16.316;2023-05-16T16:18:43;21.08;;;14.95;;
48161;SDS011;33950;48.154;16.316;2023-05-16T16:21:29;20.33;;;15.32;;
48161;SDS011;33950;48.154;16.316;2023-05-16T16:24:17;23.13;;;14.93;;